Terminal Aerodrome Forecast
Issued by NWS

Home | Current Version | Previous Version | Graphics & Text | Print | Product List | Glossary On
Versions: 1 2 3 4 5 6 7 8 9 10 11 12 13 14
000
FTUS42 KMHX 221120
TAFOAJ
TAF
KOAJ 221120Z 2212/2312 36009KT P6SM SCT015 BKN070
      TEMPO 2212/2214 BKN015
     FM221400 01008KT P6SM SCT030
     FM230000 VRB02KT P6SM SKC
      AMD LTD TO CLD VIS AND WIND=

USA.gov is the U.S. government's official web portal to all federal, state and local government web resources and services.